createdAt,value
2019-03-18T00:20:40.391Z,83.70
2019-03-18T00:50:44.189Z,83.60
2019-03-18T01:20:47.988Z,82.60
2019-03-18T01:50:51.777Z,83.20
2019-03-18T02:20:55.692Z,83.10
2019-03-18T02:50:59.444Z,83.80
2019-03-18T03:21:03.208Z,83.20
2019-03-18T03:51:06.958Z,82.50
2019-03-18T04:21:10.952Z,80.20
2019-03-18T04:51:14.785Z,79.30
2019-03-18T05:21:18.510Z,86.40
2019-03-18T05:51:22.366Z,89.50
2019-03-18T06:21:26.208Z,91.90
2019-03-18T06:51:29.853Z,90.80
2019-03-18T07:21:33.578Z,89.70
2019-03-18T07:51:37.458Z,83.50
2019-03-18T08:21:41.232Z,70.90
2019-03-18T08:51:45.075Z,71.50
2019-03-18T09:21:48.928Z,53.70
2019-03-18T09:51:52.806Z,48.10
2019-03-18T10:21:56.703Z,49.80
2019-03-18T10:52:00.552Z,46.50
2019-03-18T11:22:04.654Z,46.70
2019-03-18T11:52:08.513Z,47.50
2019-03-18T12:22:12.212Z,47.20
2019-03-18T12:52:16.319Z,45.20
2019-03-18T13:22:20.101Z,45.30
2019-03-18T13:52:23.907Z,45.90
2019-03-18T14:22:27.587Z,47.80
2019-03-18T14:52:31.416Z,51.50
2019-03-18T15:22:35.139Z,62.30
2019-03-18T15:52:38.928Z,58.30
2019-03-18T16:22:43.837Z,60.00
2019-03-18T16:52:48.976Z,61.80
2019-03-18T17:22:52.958Z,64.50
2019-03-18T17:53:03.016Z,64.00
2019-03-18T18:23:13.622Z,62.20
2019-03-18T18:53:09.366Z,64.00
2019-03-18T19:23:13.452Z,66.20
2019-03-18T19:53:17.276Z,69.20
2019-03-18T20:23:21.057Z,72.70
2019-03-18T20:53:24.836Z,73.00
2019-03-18T21:23:28.620Z,78.60
2019-03-18T21:53:32.324Z,78.10
2019-03-18T22:23:36.595Z,76.20
2019-03-18T22:53:40.479Z,79.10
2019-03-18T23:23:44.256Z,82.40
2019-03-18T23:53:48.165Z,80.80
